aviador You're here:

KHEY Decoded Metar

in _UNIDENTIFIED
Report Time2017-06-22 20:58:00
UTC Time2017-06-22 22:17:28
Flight Rules Old
Wind190° at 11 Gusting to 19 kt
W.Decomp.*RWY 17: 10.1 kt HW 4.3 kt RCW
W.Rank190° ranks 20
Current wind is above 190° avg. (5.2)
Visibility9999 m
Phenomena:N/A
Clouds:Few 044 Hf
Expected CloudBase > 3,600 ft AGL from Temp-Dew spread
CeilingNone
Temp31°C (ISA +17)
Dew Point22°C (59% RH)
Heat Index34.6°C
QNH1015 hPa
Density Alt2,500 ft
Elevation318 ft
Report Wrong Elevation
Raw Report
KHEY 222058Z AUTO 19011G19KT 10SM FEW044 31/22 A2997 RMK AO2 LTG
DSNT N SLP148 T03060223 57005=

Extra information for KHEY:More info

Metar Taf Metar & Taf Last 4 Metars F.Rules Stats Wind Profile Meteogram Temp Stats Metar ALERT Operation Metar Decoded Social comments